sensor_id;sensor_type;location;lat;lon;timestamp;pressure;altitude;pressure_sealevel;temperature;humidity
33161;BME280;19522;45.656;11.302;2023-04-01T00:01:04;97168.75;;;7.00;100.00
33161;BME280;19522;45.656;11.302;2023-04-01T00:03:31;97165.22;;;6.71;100.00
33161;BME280;19522;45.656;11.302;2023-04-01T00:05:57;97179.13;;;6.96;100.00
33161;BME280;19522;45.656;11.302;2023-04-01T00:08:24;97177.19;;;7.18;100.00
33161;BME280;19522;45.656;11.302;2023-04-01T00:10:50;97181.47;;;7.06;100.00
33161;BME280;19522;45.656;11.302;2023-04-01T00:13:17;97172.53;;;7.06;100.00
33161;BME280;19522;45.656;11.302;2023-04-01T00:15:43;97161.88;;;6.97;100.00
33161;BME280;19522;45.656;11.302;2023-04-01T00:18:09;97174.91;;;7.15;100.00
33161;BME280;19522;45.656;11.302;2023-04-01T00:20:34;97172.78;;;7.11;100.00
33161;BME280;19522;45.656;11.302;2023-04-01T00:23:00;97178.19;;;6.61;100.00
33161;BME280;19522;45.656;11.302;2023-04-01T00:25:26;97183.59;;;6.61;100.00
33161;BME280;19522;45.656;11.302;2023-04-01T00:27:51;97179.50;;;6.43;100.00
33161;BME280;19522;45.656;11.302;2023-04-01T00:30:17;97186.41;;;6.74;100.00
33161;BME280;19522;45.656;11.302;2023-04-01T00:32:43;97178.06;;;6.69;100.00
33161;BME280;19522;45.656;11.302;2023-04-01T00:35:09;97183.63;;;6.89;100.00
33161;BME280;19522;45.656;11.302;2023-04-01T00:37:36;97177.00;;;6.92;100.00
33161;BME280;19522;45.656;11.302;2023-04-01T00:40:04;97179.69;;;6.92;100.00
33161;BME280;19522;45.656;11.302;2023-04-01T00:42:31;97171.97;;;6.82;100.00
33161;BME280;19522;45.656;11.302;2023-04-01T00:44:56;97176.84;;;7.00;100.00
33161;BME280;19522;45.656;11.302;2023-04-01T00:47:24;97168.91;;;6.92;100.00
33161;BME280;19522;45.656;11.302;2023-04-01T00:49:52;97179.81;;;7.05;100.00
33161;BME280;19522;45.656;11.302;2023-04-01T00:52:21;97177.84;;;6.92;99.94
33161;BME280;19522;45.656;11.302;2023-04-01T00:54:50;97180.78;;;6.97;99.47
33161;BME280;19522;45.656;11.302;2023-04-01T00:57:28;97171.66;;;6.98;99.13
33161;BME280;19522;45.656;11.302;2023-04-01T00:59:56;97167.72;;;7.01;98.17
33161;BME280;19522;45.656;11.302;2023-04-01T01:02:24;97181.22;;;7.01;97.97
33161;BME280;19522;45.656;11.302;2023-04-01T01:04:50;97180.19;;;7.02;97.63
33161;BME280;19522;45.656;11.302;2023-04-01T01:08:18;97177.97;;;6.84;98.11
33161;BME280;19522;45.656;11.302;2023-04-01T01:10:23;97179.91;;;6.90;98.22
33161;BME280;19522;45.656;11.302;2023-04-01T01:13:15;97180.22;;;6.80;98.64
33161;BME280;19522;45.656;11.302;2023-04-01T01:16:24;97188.09;;;6.75;99.46
33161;BME280;19522;45.656;11.302;2023-04-01T01:21:51;97185.38;;;6.75;100.00
33161;BME280;19522;45.656;11.302;2023-04-01T01:27:28;97181.53;;;6.63;100.00
33161;BME280;19522;45.656;11.302;2023-04-01T01:30:12;97182.19;;;6.21;100.00
33161;BME280;19522;45.656;11.302;2023-04-01T01:35:40;97171.69;;;6.48;100.00
33161;BME280;19522;45.656;11.302;2023-04-01T01:38:11;97178.19;;;6.61;100.00
33161;BME280;19522;45.656;11.302;2023-04-01T01:40:41;97181.34;;;6.64;100.00
33161;BME280;19522;45.656;11.302;2023-04-01T01:43:12;97172.19;;;6.59;100.00
33161;BME280;19522;45.656;11.302;2023-04-01T01:45:55;97176.66;;;6.73;100.00
33161;BME280;19522;45.656;11.302;2023-04-01T01:48:23;97165.03;;;6.73;100.00
33161;BME280;19522;45.656;11.302;2023-04-01T01:50:50;97186.56;;;6.66;100.00
33161;BME280;19522;45.656;11.302;2023-04-01T01:53:16;97177.47;;;6.74;99.68
33161;BME280;19522;45.656;11.302;2023-04-01T01:55:46;97175.63;;;6.74;99.10
33161;BME280;19522;45.656;11.302;2023-04-01T01:58:28;97170.59;;;6.71;98.13
33161;BME280;19522;45.656;11.302;2023-04-01T02:01:00;97172.38;;;6.57;98.60
33161;BME280;19522;45.656;11.302;2023-04-01T02:03:29;97167.16;;;6.34;100.00
33161;BME280;19522;45.656;11.302;2023-04-01T02:05:59;97175.44;;;6.11;100.00
33161;BME280;19522;45.656;11.302;2023-04-01T02:08:33;97177.81;;;6.20;100.00
33161;BME280;19522;45.656;11.302;2023-04-01T02:11:10;97161.97;;;6.32;100.00
33161;BME280;19522;45.656;11.302;2023-04-01T02:13:47;97167.09;;;6.49;100.00
33161;BME280;19522;45.656;11.302;2023-04-01T02:16:20;97172.69;;;6.47;100.00
33161;BME280;19522;45.656;11.302;2023-04-01T02:18:50;97158.94;;;6.42;100.00
33161;BME280;19522;45.656;11.302;2023-04-01T02:21:20;97172.06;;;6.45;100.00
33161;BME280;19522;45.656;11.302;2023-04-01T02:23:47;97178.34;;;6.31;99.75
33161;BME280;19522;45.656;11.302;2023-04-01T02:26:13;97156.13;;;6.07;100.00
33161;BME280;19522;45.656;11.302;2023-04-01T02:28:40;97194.97;;;6.13;100.00
33161;BME280;19522;45.656;11.302;2023-04-01T02:31:09;97169.47;;;6.15;100.00
33161;BME280;19522;45.656;11.302;2023-04-01T02:33:36;97179.91;;;6.18;99.88
33161;BME280;19522;45.656;11.302;2023-04-01T02:36:03;97189.06;;;6.24;99.09
33161;BME280;19522;45.656;11.302;2023-04-01T02:38:29;97185.09;;;6.20;98.60
33161;BME280;19522;45.656;11.302;2023-04-01T02:40:59;97185.97;;;6.27;98.16
33161;BME280;19522;45.656;11.302;2023-04-01T02:43:26;97167.88;;;6.21;98.12
33161;BME280;19522;45.656;11.302;2023-04-01T02:45:52;97175.03;;;6.29;97.76
33161;BME280;19522;45.656;11.302;2023-04-01T02:48:18;97157.81;;;6.08;97.54
33161;BME280;19522;45.656;11.302;2023-04-01T02:50:43;97165.75;;;6.16;98.03
33161;BME280;19522;45.656;11.302;2023-04-01T02:53:09;97160.44;;;6.23;97.77
33161;BME280;19522;45.656;11.302;2023-04-01T02:55:35;97162.28;;;6.22;97.42
33161;BME280;19522;45.656;11.302;2023-04-01T02:58:03;97166.00;;;6.21;97.51
33161;BME280;19522;45.656;11.302;2023-04-01T03:00:29;97157.41;;;6.33;96.46
33161;BME280;19522;45.656;11.302;2023-04-01T03:02:55;97159.88;;;6.28;95.97
33161;BME280;19522;45.656;11.302;2023-04-01T03:05:22;97131.50;;;6.10;96.10
33161;BME280;19522;45.656;11.302;2023-04-01T03:07:47;97154.13;;;6.16;96.48
33161;BME280;19522;45.656;11.302;2023-04-01T03:10:13;97140.97;;;6.06;96.60
33161;BME280;19522;45.656;11.302;2023-04-01T03:12:39;97131.97;;;5.99;96.64
33161;BME280;19522;45.656;11.302;2023-04-01T03:15:05;97168.22;;;5.44;99.38
33161;BME280;19522;45.656;11.302;2023-04-01T03:17:31;97162.44;;;5.63;99.64
33161;BME280;19522;45.656;11.302;2023-04-01T03:19:56;97157.19;;;5.76;99.04
33161;BME280;19522;45.656;11.302;2023-04-01T03:22:22;97173.47;;;5.68;100.00
33161;BME280;19522;45.656;11.302;2023-04-01T03:24:48;97175.53;;;5.66;100.00
33161;BME280;19522;45.656;11.302;2023-04-01T03:27:14;97153.06;;;5.58;100.00
33161;BME280;19522;45.656;11.302;2023-04-01T03:29:39;97156.66;;;5.66;100.00
33161;BME280;19522;45.656;11.302;2023-04-01T03:32:05;97153.75;;;5.82;100.00
33161;BME280;19522;45.656;11.302;2023-04-01T03:34:31;97156.25;;;5.84;100.00
33161;BME280;19522;45.656;11.302;2023-04-01T03:36:57;97127.03;;;5.66;100.00
33161;BME280;19522;45.656;11.302;2023-04-01T03:39:22;97155.94;;;5.72;100.00
33161;BME280;19522;45.656;11.302;2023-04-01T03:41:48;97156.56;;;5.74;99.84
33161;BME280;19522;45.656;11.302;2023-04-01T03:44:14;97156.84;;;5.79;99.20
33161;BME280;19522;45.656;11.302;2023-04-01T03:46:43;97156.88;;;5.64;99.54
33161;BME280;19522;45.656;11.302;2023-04-01T03:49:09;97149.50;;;5.73;100.00
33161;BME280;19522;45.656;11.302;2023-04-01T03:51:42;97144.66;;;5.17;100.00
33161;BME280;19522;45.656;11.302;2023-04-01T03:54:10;97146.94;;;5.20;100.00
33161;BME280;19522;45.656;11.302;2023-04-01T03:56:36;97140.38;;;5.22;100.00
33161;BME280;19522;45.656;11.302;2023-04-01T03:59:05;97121.44;;;4.86;100.00
33161;BME280;19522;45.656;11.302;2023-04-01T04:01:30;97126.81;;;4.71;100.00
33161;BME280;19522;45.656;11.302;2023-04-01T04:03:56;97144.44;;;4.88;100.00
33161;BME280;19522;45.656;11.302;2023-04-01T04:06:22;97154.19;;;5.04;100.00
33161;BME280;19522;45.656;11.302;2023-04-01T04:08:49;97157.34;;;5.08;100.00
33161;BME280;19522;45.656;11.302;2023-04-01T04:11:15;97143.34;;;5.12;100.00
33161;BME280;19522;45.656;11.302;2023-04-01T04:13:41;97139.44;;;5.15;100.00
33161;BME280;19522;45.656;11.302;2023-04-01T04:16:07;97152.72;;;5.32;100.00
33161;BME280;19522;45.656;11.302;2023-04-01T04:18:35;97154.22;;;5.19;100.00
33161;BME280;19522;45.656;11.302;2023-04-01T04:21:00;97150.75;;;5.10;100.00
33161;BME280;19522;45.656;11.302;2023-04-01T04:23:26;97163.19;;;5.11;100.00
33161;BME280;19522;45.656;11.302;2023-04-01T04:25:59;97161.25;;;5.20;100.00
33161;BME280;19522;45.656;11.302;2023-04-01T04:28:26;97160.25;;;5.36;100.00
33161;BME280;19522;45.656;11.302;2023-04-01T04:30:53;97148.91;;;5.26;99.48
33161;BME280;19522;45.656;11.302;2023-04-01T04:33:19;97152.47;;;4.58;100.00
33161;BME280;19522;45.656;11.302;2023-04-01T04:35:45;97165.31;;;4.48;100.00
33161;BME280;19522;45.656;11.302;2023-04-01T04:38:10;97133.78;;;4.42;100.00
33161;BME280;19522;45.656;11.302;2023-04-01T04:40:37;97166.75;;;4.59;100.00
33161;BME280;19522;45.656;11.302;2023-04-01T04:43:03;97172.88;;;4.67;100.00
33161;BME280;19522;45.656;11.302;2023-04-01T04:45:32;97172.28;;;4.95;100.00
33161;BME280;19522;45.656;11.302;2023-04-01T04:47:57;97171.94;;;4.60;100.00
33161;BME280;19522;45.656;11.302;2023-04-01T04:50:24;97175.13;;;4.79;100.00
33161;BME280;19522;45.656;11.302;2023-04-01T04:52:49;97183.44;;;4.92;100.00
33161;BME280;19522;45.656;11.302;2023-04-01T04:55:15;97180.91;;;5.06;100.00
33161;BME280;19522;45.656;11.302;2023-04-01T04:57:41;97180.19;;;5.12;100.00
33161;BME280;19522;45.656;11.302;2023-04-01T05:00:08;97174.91;;;5.19;100.00
33161;BME280;19522;45.656;11.302;2023-04-01T05:02:35;97180.31;;;5.19;100.00
33161;BME280;19522;45.656;11.302;2023-04-01T05:05:00;97191.78;;;5.27;100.00
33161;BME280;19522;45.656;11.302;2023-04-01T05:07:26;97198.03;;;5.28;100.00
33161;BME280;19522;45.656;11.302;2023-04-01T05:09:51;97198.56;;;5.08;100.00
33161;BME280;19522;45.656;11.302;2023-04-01T05:12:17;97197.06;;;5.06;100.00
33161;BME280;19522;45.656;11.302;2023-04-01T05:14:42;97168.50;;;5.05;100.00
33161;BME280;19522;45.656;11.302;2023-04-01T05:17:10;97191.44;;;5.15;100.00
33161;BME280;19522;45.656;11.302;2023-04-01T05:19:36;97176.59;;;5.05;100.00
33161;BME280;19522;45.656;11.302;2023-04-01T05:22:02;97170.34;;;5.04;100.00
33161;BME280;19522;45.656;11.302;2023-04-01T05:24:27;97203.22;;;5.29;100.00
33161;BME280;19522;45.656;11.302;2023-04-01T05:26:53;97193.56;;;5.20;100.00
33161;BME280;19522;45.656;11.302;2023-04-01T05:29:18;97195.59;;;5.18;100.00
33161;BME280;19522;45.656;11.302;2023-04-01T05:31:43;97197.88;;;4.76;100.00
33161;BME280;19522;45.656;11.302;2023-04-01T05:34:09;97199.16;;;4.42;100.00
33161;BME280;19522;45.656;11.302;2023-04-01T05:36:35;97208.06;;;4.43;100.00
33161;BME280;19522;45.656;11.302;2023-04-01T05:39:01;97201.59;;;4.52;100.00
33161;BME280;19522;45.656;11.302;2023-04-01T05:41:27;97212.63;;;4.80;100.00
33161;BME280;19522;45.656;11.302;2023-04-01T05:43:52;97208.47;;;4.93;100.00
33161;BME280;19522;45.656;11.302;2023-04-01T05:46:18;97209.44;;;5.00;100.00
33161;BME280;19522;45.656;11.302;2023-04-01T05:48:43;97212.75;;;5.02;100.00
33161;BME280;19522;45.656;11.302;2023-04-01T05:51:15;97221.78;;;5.09;100.00
33161;BME280;19522;45.656;11.302;2023-04-01T05:53:41;97216.88;;;5.28;100.00
33161;BME280;19522;45.656;11.302;2023-04-01T05:56:08;97208.88;;;5.05;100.00
33161;BME280;19522;45.656;11.302;2023-04-01T05:58:35;97227.06;;;5.03;100.00
33161;BME280;19522;45.656;11.302;2023-04-01T06:01:05;97229.66;;;5.11;100.00
33161;BME280;19522;45.656;11.302;2023-04-01T06:03:31;97228.66;;;5.12;100.00
33161;BME280;19522;45.656;11.302;2023-04-01T06:05:57;97238.97;;;5.23;100.00
33161;BME280;19522;45.656;11.302;2023-04-01T06:08:24;97243.25;;;5.33;100.00
33161;BME280;19522;45.656;11.302;2023-04-01T06:36:16;97254.44;;;6.48;97.14
33161;BME280;19522;45.656;11.302;2023-04-01T06:38:52;97251.69;;;6.63;98.39
33161;BME280;19522;45.656;11.302;2023-04-01T06:42:04;97247.38;;;6.90;97.94
33161;BME280;19522;45.656;11.302;2023-04-01T06:58:14;97267.16;;;7.54;90.39
33161;BME280;19522;45.656;11.302;2023-04-01T07:00:44;97246.41;;;7.55;90.20
33161;BME280;19522;45.656;11.302;2023-04-01T07:05:43;97243.59;;;7.76;88.71
33161;BME280;19522;45.656;11.302;2023-04-01T07:08:13;97234.72;;;7.83;87.82
33161;BME280;19522;45.656;11.302;2023-04-01T07:16:07;97255.78;;;8.56;86.40
33161;BME280;19522;45.656;11.302;2023-04-01T07:21:04;97245.00;;;8.76;84.42
33161;BME280;19522;45.656;11.302;2023-04-01T07:23:44;97251.25;;;8.90;84.09
33161;BME280;19522;45.656;11.302;2023-04-01T07:26:29;97252.72;;;9.06;84.79
33161;BME280;19522;45.656;11.302;2023-04-01T07:28:54;97251.47;;;9.35;86.53
33161;BME280;19522;45.656;11.302;2023-04-01T07:39:40;97246.31;;;11.60;75.00
33161;BME280;19522;45.656;11.302;2023-04-01T07:42:37;97249.09;;;11.97;74.43
33161;BME280;19522;45.656;11.302;2023-04-01T07:48:35;97246.28;;;12.71;68.15
33161;BME280;19522;45.656;11.302;2023-04-01T07:51:17;97248.63;;;13.10;68.75
33161;BME280;19522;45.656;11.302;2023-04-01T07:59:57;97261.19;;;12.99;68.88
33161;BME280;19522;45.656;11.302;2023-04-01T08:05:36;97262.56;;;12.78;71.15
33161;BME280;19522;45.656;11.302;2023-04-01T08:21:52;97251.56;;;14.80;62.94
33161;BME280;19522;45.656;11.302;2023-04-01T08:24:25;97250.53;;;14.98;65.29
33161;BME280;19522;45.656;11.302;2023-04-01T08:26:56;97249.03;;;15.24;64.09
33161;BME280;19522;45.656;11.302;2023-04-01T08:29:38;97249.06;;;15.41;63.48
33161;BME280;19522;45.656;11.302;2023-04-01T08:32:14;97246.56;;;15.57;61.64
33161;BME280;19522;45.656;11.302;2023-04-01T08:34:44;97242.63;;;14.85;62.66
33161;BME280;19522;45.656;11.302;2023-04-01T08:37:15;97226.47;;;14.54;63.50
33161;BME280;19522;45.656;11.302;2023-04-01T08:39:58;97247.09;;;14.91;64.58
33161;BME280;19522;45.656;11.302;2023-04-01T08:53:12;97246.16;;;15.48;60.52
33161;BME280;19522;45.656;11.302;2023-04-01T08:56:03;97257.63;;;14.82;60.63
33161;BME280;19522;45.656;11.302;2023-04-01T09:04:47;97275.69;;;14.42;64.54
33161;BME280;19522;45.656;11.302;2023-04-01T09:10:21;97262.50;;;14.39;67.00
33161;BME280;19522;45.656;11.302;2023-04-01T09:23:59;97271.16;;;14.77;64.80
33161;BME280;19522;45.656;11.302;2023-04-01T09:27:02;97280.41;;;15.34;63.32
33161;BME280;19522;45.656;11.302;2023-04-01T09:38:20;97235.41;;;15.81;60.63
33161;BME280;19522;45.656;11.302;2023-04-01T09:54:07;97261.03;;;16.31;58.28
33161;BME280;19522;45.656;11.302;2023-04-01T10:11:04;97251.84;;;16.20;62.74
33161;BME280;19522;45.656;11.302;2023-04-01T10:31:41;97254.72;;;16.30;62.24
33161;BME280;19522;45.656;11.302;2023-04-01T10:37:13;97248.13;;;16.76;61.54
33161;BME280;19522;45.656;11.302;2023-04-01T10:45:36;97245.63;;;17.29;59.29
33161;BME280;19522;45.656;11.302;2023-04-01T10:51:17;97233.19;;;16.17;61.10
33161;BME280;19522;45.656;11.302;2023-04-01T10:56:56;97238.72;;;16.00;62.72
33161;BME280;19522;45.656;11.302;2023-04-01T10:59:42;97246.91;;;15.43;64.01
33161;BME280;19522;45.656;11.302;2023-04-01T11:10:25;97258.41;;;15.11;65.57
33161;BME280;19522;45.656;11.302;2023-04-01T11:16:39;97250.69;;;14.91;66.79
33161;BME280;19522;45.656;11.302;2023-04-01T11:19:51;97247.19;;;14.96;66.16
33161;BME280;19522;45.656;11.302;2023-04-01T11:28:47;97255.34;;;15.08;65.50
33161;BME280;19522;45.656;11.302;2023-04-01T11:45:55;97238.88;;;14.74;67.31
33161;BME280;19522;45.656;11.302;2023-04-01T12:04:53;97252.78;;;14.60;67.80
33161;BME280;19522;45.656;11.302;2023-04-01T12:45:29;97240.63;;;15.43;60.74
33161;BME280;19522;45.656;11.302;2023-04-01T12:56:12;97238.28;;;16.08;62.20
33161;BME280;19522;45.656;11.302;2023-04-01T12:58:53;97239.44;;;16.34;61.76
33161;BME280;19522;45.656;11.302;2023-04-01T13:04:39;97232.75;;;18.05;56.39
33161;BME280;19522;45.656;11.302;2023-04-01T13:07:57;97223.84;;;18.41;53.22
33161;BME280;19522;45.656;11.302;2023-04-01T13:13:22;97230.81;;;18.05;46.74
33161;BME280;19522;45.656;11.302;2023-04-01T13:16:11;97229.19;;;18.10;46.22
33161;BME280;19522;45.656;11.302;2023-04-01T13:18:52;97226.00;;;18.28;43.81
33161;BME280;19522;45.656;11.302;2023-04-01T13:24:45;97233.09;;;18.24;47.63
33161;BME280;19522;45.656;11.302;2023-04-01T13:38:10;97201.47;;;19.16;40.39
33161;BME280;19522;45.656;11.302;2023-04-01T13:41:09;97191.56;;;19.36;36.57
33161;BME280;19522;45.656;11.302;2023-04-01T13:43:41;97183.47;;;18.57;28.15
33161;BME280;19522;45.656;11.302;2023-04-01T14:03:17;97135.69;;;19.14;26.89
33161;BME280;19522;45.656;11.302;2023-04-01T14:08:42;97135.34;;;19.57;28.63
33161;BME280;19522;45.656;11.302;2023-04-01T14:24:36;97114.69;;;21.74;29.07
33161;BME280;19522;45.656;11.302;2023-04-01T14:27:16;97128.06;;;22.10;30.99
33161;BME280;19522;45.656;11.302;2023-04-01T14:51:40;97126.94;;;20.14;36.29
33161;BME280;19522;45.656;11.302;2023-04-01T14:54:08;97115.47;;;19.81;35.01
33161;BME280;19522;45.656;11.302;2023-04-01T14:57:30;97117.94;;;19.83;33.96
33161;BME280;19522;45.656;11.302;2023-04-01T15:02:54;97104.22;;;20.38;32.75
33161;BME280;19522;45.656;11.302;2023-04-01T15:11:11;97103.22;;;20.18;31.37
33161;BME280;19522;45.656;11.302;2023-04-01T15:16:45;97098.50;;;20.29;30.90
33161;BME280;19522;45.656;11.302;2023-04-01T15:27:24;97099.16;;;21.54;30.69
33161;BME280;19522;45.656;11.302;2023-04-01T15:30:30;97095.09;;;21.95;30.21
33161;BME280;19522;45.656;11.302;2023-04-01T15:36:28;97080.47;;;21.16;30.18
33161;BME280;19522;45.656;11.302;2023-04-01T15:41:18;97096.47;;;20.40;31.96
33161;BME280;19522;45.656;11.302;2023-04-01T15:43:48;97087.34;;;20.00;31.65
33161;BME280;19522;45.656;11.302;2023-04-01T15:49:09;97083.78;;;19.94;30.72
33161;BME280;19522;45.656;11.302;2023-04-01T15:52:03;97084.06;;;19.87;29.51
33161;BME280;19522;45.656;11.302;2023-04-01T16:02:51;97095.78;;;18.81;29.25
33161;BME280;19522;45.656;11.302;2023-04-01T16:22:39;97101.06;;;17.83;30.39
33161;BME280;19522;45.656;11.302;2023-04-01T16:30:46;97096.34;;;17.73;28.26
33161;BME280;19522;45.656;11.302;2023-04-01T16:33:15;97087.88;;;17.74;28.03
33161;BME280;19522;45.656;11.302;2023-04-01T16:35:53;97081.06;;;17.87;28.64
33161;BME280;19522;45.656;11.302;2023-04-01T16:41:00;97098.28;;;17.78;28.56
33161;BME280;19522;45.656;11.302;2023-04-01T16:43:38;97094.41;;;17.63;29.60
33161;BME280;19522;45.656;11.302;2023-04-01T16:46:31;97087.25;;;17.62;28.37
33161;BME280;19522;45.656;11.302;2023-04-01T16:54:51;97094.16;;;17.22;28.70
33161;BME280;19522;45.656;11.302;2023-04-01T16:57:25;97085.13;;;17.26;28.77
33161;BME280;19522;45.656;11.302;2023-04-01T17:00:16;97088.09;;;17.15;28.53
33161;BME280;19522;45.656;11.302;2023-04-01T17:02:47;97036.59;;;16.89;29.31
33161;BME280;19522;45.656;11.302;2023-04-01T17:05:15;97089.50;;;17.22;28.70
33161;BME280;19522;45.656;11.302;2023-04-01T17:13:16;97095.22;;;17.16;32.12
33161;BME280;19522;45.656;11.302;2023-04-01T17:21:39;97098.78;;;16.83;35.04
33161;BME280;19522;45.656;11.302;2023-04-01T17:42:09;97124.38;;;16.07;44.41
33161;BME280;19522;45.656;11.302;2023-04-01T17:47:39;97134.72;;;15.61;43.67
33161;BME280;19522;45.656;11.302;2023-04-01T18:20:54;97181.59;;;14.96;44.22
33161;BME280;19522;45.656;11.302;2023-04-01T18:23:40;97194.84;;;15.04;43.54
33161;BME280;19522;45.656;11.302;2023-04-01T18:26:33;97197.19;;;14.95;43.65
33161;BME280;19522;45.656;11.302;2023-04-01T18:35:47;97220.00;;;14.31;45.44
33161;BME280;19522;45.656;11.302;2023-04-01T18:38:18;97229.56;;;14.17;45.70
33161;BME280;19522;45.656;11.302;2023-04-01T18:40:54;97230.50;;;14.11;46.32
33161;BME280;19522;45.656;11.302;2023-04-01T18:43:45;97232.84;;;14.31;45.72
33161;BME280;19522;45.656;11.302;2023-04-01T18:52:17;97237.06;;;14.39;45.71
33161;BME280;19522;45.656;11.302;2023-04-01T18:57:18;97252.00;;;14.48;46.30
33161;BME280;19522;45.656;11.302;2023-04-01T18:59:53;97244.50;;;14.67;46.10
33161;BME280;19522;45.656;11.302;2023-04-01T19:02:41;97253.44;;;15.08;45.27
33161;BME280;19522;45.656;11.302;2023-04-01T19:05:18;97257.66;;;15.16;45.62
33161;BME280;19522;45.656;11.302;2023-04-01T19:07:49;97259.19;;;15.58;45.37
33161;BME280;19522;45.656;11.302;2023-04-01T19:13:15;97269.47;;;15.34;45.50
33161;BME280;19522;45.656;11.302;2023-04-01T19:16:04;97274.59;;;15.47;46.27
33161;BME280;19522;45.656;11.302;2023-04-01T19:18:44;97256.53;;;15.29;49.12
33161;BME280;19522;45.656;11.302;2023-04-01T19:21:27;97275.13;;;15.15;48.14
33161;BME280;19522;45.656;11.302;2023-04-01T19:24:58;97299.94;;;15.42;57.17
33161;BME280;19522;45.656;11.302;2023-04-01T19:35:19;97316.81;;;15.05;64.69
33161;BME280;19522;45.656;11.302;2023-04-01T19:54:12;97346.13;;;14.05;71.70
33161;BME280;19522;45.656;11.302;2023-04-01T20:02:04;97360.91;;;13.61;74.35
33161;BME280;19522;45.656;11.302;2023-04-01T20:04:43;97353.94;;;13.65;74.16
33161;BME280;19522;45.656;11.302;2023-04-01T20:15:40;97350.06;;;13.43;76.84
33161;BME280;19522;45.656;11.302;2023-04-01T20:24:20;97352.56;;;13.14;78.73
33161;BME280;19522;45.656;11.302;2023-04-01T20:26:58;97360.44;;;13.22;78.43
33161;BME280;19522;45.656;11.302;2023-04-01T20:29:38;97354.19;;;13.03;79.15
33161;BME280;19522;45.656;11.302;2023-04-01T20:35:22;97359.28;;;13.72;76.14
33161;BME280;19522;45.656;11.302;2023-04-01T20:46:30;97374.22;;;13.69;76.01
33161;BME280;19522;45.656;11.302;2023-04-01T20:52:02;97357.50;;;13.35;77.24
33161;BME280;19522;45.656;11.302;2023-04-01T21:03:10;97390.78;;;13.56;76.72
33161;BME280;19522;45.656;11.302;2023-04-01T21:11:03;97386.66;;;13.65;75.84
33161;BME280;19522;45.656;11.302;2023-04-01T21:16:23;97388.47;;;13.95;74.46
33161;BME280;19522;45.656;11.302;2023-04-01T21:18:58;97397.75;;;13.94;74.23
33161;BME280;19522;45.656;11.302;2023-04-01T21:35:21;97411.75;;;13.44;73.96
33161;BME280;19522;45.656;11.302;2023-04-01T21:49:49;97394.94;;;13.59;73.59
33161;BME280;19522;45.656;11.302;2023-04-01T22:07:17;97387.63;;;13.10;76.14
33161;BME280;19522;45.656;11.302;2023-04-01T22:10:10;97390.28;;;13.17;76.56
33161;BME280;19522;45.656;11.302;2023-04-01T22:15:20;97384.50;;;13.25;76.18
33161;BME280;19522;45.656;11.302;2023-04-01T22:18:07;97379.38;;;13.17;76.29
33161;BME280;19522;45.656;11.302;2023-04-01T22:20:56;97381.50;;;13.15;76.35
33161;BME280;19522;45.656;11.302;2023-04-01T22:26:23;97382.31;;;12.85;78.21
33161;BME280;19522;45.656;11.302;2023-04-01T22:28:58;97381.50;;;12.84;78.47
33161;BME280;19522;45.656;11.302;2023-04-01T22:31:29;97374.63;;;12.82;78.56
33161;BME280;19522;45.656;11.302;2023-04-01T22:34:16;97367.88;;;12.66;79.17
33161;BME280;19522;45.656;11.302;2023-04-01T22:40:14;97352.06;;;12.37;79.77
33161;BME280;19522;45.656;11.302;2023-04-01T22:42:49;97378.72;;;12.35;80.67
33161;BME280;19522;45.656;11.302;2023-04-01T22:52:50;97344.28;;;12.41;79.68
33161;BME280;19522;45.656;11.302;2023-04-01T22:55:25;97376.28;;;12.64;79.25
33161;BME280;19522;45.656;11.302;2023-04-01T22:58:05;97386.09;;;12.65;79.42
33161;BME280;19522;45.656;11.302;2023-04-01T23:05:47;97378.91;;;12.89;78.66
33161;BME280;19522;45.656;11.302;2023-04-01T23:11:14;97379.69;;;12.78;78.96
33161;BME280;19522;45.656;11.302;2023-04-01T23:14:24;97380.97;;;12.57;80.46
33161;BME280;19522;45.656;11.302;2023-04-01T23:16:40;97382.19;;;12.61;80.45
33161;BME280;19522;45.656;11.302;2023-04-01T23:23:15;97386.88;;;12.72;80.34
33161;BME280;19522;45.656;11.302;2023-04-01T23:36:10;97392.31;;;12.17;81.98
33161;BME280;19522;45.656;11.302;2023-04-01T23:38:39;97358.19;;;11.89;83.08
33161;BME280;19522;45.656;11.302;2023-04-01T23:41:16;97388.13;;;12.14;82.42
33161;BME280;19522;45.656;11.302;2023-04-01T23:43:44;97363.81;;;12.19;81.33
33161;BME280;19522;45.656;11.302;2023-04-01T23:46:12;97388.53;;;12.36;80.91
33161;BME280;19522;45.656;11.302;2023-04-01T23:48:43;97396.63;;;12.43;80.83
33161;BME280;19522;45.656;11.302;2023-04-01T23:51:28;97382.81;;;12.44;79.74
33161;BME280;19522;45.656;11.302;2023-04-01T23:54:13;97396.63;;;12.80;79.00
33161;BME280;19522;45.656;11.302;2023-04-01T23:56:50;97391.69;;;12.89;77.99
33161;BME280;19522;45.656;11.302;2023-04-01T23:59:28;97396.72;;;12.73;78.41
